EGTC

Cranfield Airport

Cranfield, United Kingdom
METAR EGTC 241620Z 22017KT 6000 BKN009 13/12 Q1008
Observed Flight Rules
Apr-24 @ 16:20 UTC (8 hours ago) Instrument Flight Rules
Wind Visibility Clouds
220° at 17 knots 6,003 meters
  • Broken at 900' AGL
Temperatures Readings
Current 13°C / 55°F
Dewpoint 12°C / 54°F
Humidity 94%
Altimeter 29.76" Hg
Pressure 1008 hPa
Elevation 111
METAR EGTC 241620Z 22017KT 6000 BKN009 13/12 Q1008
Observed Flight Rules
Apr-24 @ 16:20 UTC
(8 hours ago)
IFR
Wind Visibility
220° at 17 knots 6,003 meters
Clouds
  • Broken at 900' AGL
Temperature Dewpoint
13°C / 55°F 12°C / 54°F
Humidity Altimeter Pressure
94% 29.76" Hg 1008 hPa